GMMN

Mohammed V International Airport

ICAO Code GMMN
IATA Code CMN
Name Mohammed V International Airport
Location Casablanca, , MA
Elevation 656 Feet / 199.9 Meters
Latitude 33.36750031
Longitude -7.58997011
METAR GMMN 211000Z 35006KT 9999 BKN025 22/14 Q1017 NOSIG
Extra information Display Charts and CFS
Display NOTAMS
Runway Length Width Surface Elevation
17L 12205 ft 148 ft ASP 633 ft
17R 12205 ft 148 ft ASP 636 ft
35R 12205 ft 148 ft ASP 656 ft
35L 12205 ft 148 ft ASP 656 ft